LRCV - CRAIOVA

Compiled: 17:53:16 on 22/07/2018

Latest METAR/SPECI Reports

METAR LRCV 221730Z AUTO 04003KT 9999 NCD 27/18 Q1007=

Previous reports

METAR LRCV 221700Z AUTO VRB01KT 9999 FEW200/// 29/18 Q1007=
METAR LRCV 221630Z AUTO 01003KT 9999 NCD 29/18 Q1007=
METAR LRCV 221600Z 05003KT 9999 SCT050CB 29/17 Q1007=
METAR LRCV 221530Z 08003KT 320V110 9999 FEW050CB 30/17 Q1007=

Latest TAF report

TAF LRCV 221700Z 2218/2303 VRB04KT CAVOK BECMG 2219/2221 SCT010 SCT040CB TEMPO 2221/2303 VRB20KT 5000 TSRA=

Valid WARNINGS

No valid warnings for LRCV